createdAt,value
2017-09-26T00:00:38.269Z,1006.76
2017-09-26T00:01:19.146Z,1006.77
2017-09-26T00:01:59.978Z,1006.78
2017-09-26T00:02:40.519Z,1006.77
2017-09-26T00:03:21.306Z,1006.73
2017-09-26T00:04:02.113Z,1006.73
2017-09-26T00:04:44.485Z,1006.74
2017-09-26T00:05:25.119Z,1006.76
2017-09-26T00:06:05.935Z,1006.75
2017-09-26T00:06:46.630Z,1006.78
2017-09-26T00:07:27.545Z,1006.74
2017-09-26T00:08:08.322Z,1006.79
2017-09-26T00:08:48.995Z,1006.74
2017-09-26T00:09:29.721Z,1006.76
2017-09-26T00:10:10.497Z,1006.77
2017-09-26T00:10:51.298Z,1006.71
2017-09-26T00:11:32.308Z,1006.74
2017-09-26T00:12:13.003Z,1006.78
2017-09-26T00:12:53.444Z,1006.81
2017-09-26T00:13:34.020Z,1006.77
2017-09-26T00:14:14.631Z,1006.76
2017-09-26T00:14:55.075Z,1006.77
2017-09-26T00:15:35.660Z,1006.79
2017-09-26T00:16:16.231Z,1006.73
2017-09-26T00:16:56.752Z,1006.73
2017-09-26T00:17:37.304Z,1006.74
2017-09-26T00:18:17.894Z,1006.71
2017-09-26T00:18:58.383Z,1006.75
2017-09-26T00:19:38.908Z,1006.7
2017-09-26T00:20:19.491Z,1006.7
2017-09-26T00:21:00.033Z,1006.74
2017-09-26T00:21:40.526Z,1006.74
2017-09-26T00:22:21.060Z,1006.75
2017-09-26T00:23:01.602Z,1006.71
2017-09-26T00:23:42.167Z,1006.73
2017-09-26T00:24:22.675Z,1006.76
2017-09-26T00:25:03.215Z,1006.71
2017-09-26T00:25:43.743Z,1006.7
2017-09-26T00:26:24.303Z,1006.69
2017-09-26T00:27:04.802Z,1006.74
2017-09-26T00:27:45.427Z,1006.72
2017-09-26T00:28:25.942Z,1006.71
2017-09-26T00:29:06.483Z,1006.71
2017-09-26T00:29:47.003Z,1006.7
2017-09-26T00:30:27.596Z,1006.7
2017-09-26T00:31:08.158Z,1006.75
2017-09-26T00:31:48.655Z,1006.73
2017-09-26T00:32:29.220Z,1006.74
2017-09-26T00:33:09.735Z,1006.78
2017-09-26T00:33:50.263Z,1006.7
2017-09-26T00:34:30.839Z,1006.74
2017-09-26T00:35:11.370Z,1006.78
2017-09-26T00:35:51.905Z,1006.76
2017-09-26T00:36:32.456Z,1006.79
2017-09-26T00:37:13.021Z,1006.75
2017-09-26T00:37:53.571Z,1006.76
2017-09-26T00:38:34.163Z,1006.72
2017-09-26T00:39:14.655Z,1006.74
2017-09-26T00:39:55.214Z,1006.76
2017-09-26T00:40:35.741Z,1006.73
2017-09-26T00:41:16.258Z,1006.74
2017-09-26T00:41:56.784Z,1006.74
2017-09-26T00:42:37.337Z,1006.76
2017-09-26T00:43:17.870Z,1006.77
2017-09-26T00:43:58.426Z,1006.77
2017-09-26T00:44:38.944Z,1006.73
2017-09-26T00:45:19.545Z,1006.74
2017-09-26T00:46:00.068Z,1006.78
2017-09-26T00:46:40.593Z,1006.77
2017-09-26T00:47:21.098Z,1006.78
2017-09-26T00:48:01.621Z,1006.72
2017-09-26T00:48:42.209Z,1006.75
2017-09-26T00:49:22.725Z,1006.75
2017-09-26T00:50:03.314Z,1006.77
2017-09-26T00:50:43.914Z,1006.75
2017-09-26T00:51:24.462Z,1006.75
2017-09-26T00:52:05.003Z,1006.77
2017-09-26T00:52:45.547Z,1006.75
2017-09-26T00:53:26.060Z,1006.75
2017-09-26T00:54:06.586Z,1006.74
2017-09-26T00:54:47.127Z,1006.73
2017-09-26T00:55:27.740Z,1006.69
2017-09-26T00:56:08.265Z,1006.7
2017-09-26T00:56:48.805Z,1006.73
2017-09-26T00:57:29.281Z,1006.71
2017-09-26T00:58:09.850Z,1006.74
2017-09-26T00:58:50.343Z,1006.72
2017-09-26T00:59:30.898Z,1006.7
2017-09-26T01:00:11.447Z,1006.69
2017-09-26T01:00:51.982Z,1006.78
2017-09-26T01:01:32.536Z,1006.73
2017-09-26T01:02:13.073Z,1006.77
2017-09-26T01:02:53.589Z,1006.74
2017-09-26T01:03:34.124Z,1006.74
2017-09-26T01:04:14.666Z,1006.73
2017-09-26T01:04:55.199Z,1006.74
2017-09-26T01:05:35.713Z,1006.73
2017-09-26T01:06:16.227Z,1006.68
2017-09-26T01:06:56.760Z,1006.69
2017-09-26T01:07:37.293Z,1006.67
2017-09-26T01:08:17.874Z,1006.72
2017-09-26T01:08:58.426Z,1006.67
2017-09-26T01:09:38.932Z,1006.7
2017-09-26T01:10:19.420Z,1006.71
2017-09-26T01:10:59.969Z,1006.68
2017-09-26T01:11:40.512Z,1006.7
2017-09-26T01:12:21.075Z,1006.72
2017-09-26T01:13:01.662Z,1006.68
2017-09-26T01:13:42.162Z,1006.7
2017-09-26T01:14:22.717Z,1006.71
2017-09-26T01:15:03.242Z,1006.69
2017-09-26T01:15:43.788Z,1006.71
2017-09-26T01:16:24.331Z,1006.74
2017-09-26T01:17:04.913Z,1006.72
2017-09-26T01:17:45.428Z,1006.71
2017-09-26T01:18:25.997Z,1006.71
2017-09-26T01:19:06.563Z,1006.69
2017-09-26T01:19:47.084Z,1006.72
2017-09-26T01:20:27.589Z,1006.74
2017-09-26T01:21:08.117Z,1006.69
2017-09-26T01:21:48.681Z,1006.73
2017-09-26T01:22:29.230Z,1006.72
2017-09-26T01:23:09.755Z,1006.73
2017-09-26T01:23:50.342Z,1006.7
2017-09-26T01:24:30.945Z,1006.72
2017-09-26T01:25:11.415Z,1006.76
2017-09-26T01:25:51.981Z,1006.7
2017-09-26T01:26:32.526Z,1006.75
2017-09-26T01:27:13.084Z,1006.72
2017-09-26T01:27:53.636Z,1006.76
2017-09-26T01:28:34.158Z,1006.8
2017-09-26T01:29:14.711Z,1006.79
2017-09-26T01:29:55.238Z,1006.74
2017-09-26T01:30:35.792Z,1006.75
2017-09-26T01:31:16.303Z,1006.77
2017-09-26T01:31:56.905Z,1006.77
2017-09-26T01:32:37.471Z,1006.8
2017-09-26T01:33:18.039Z,1006.74
2017-09-26T01:33:58.571Z,1006.78
2017-09-26T01:34:39.047Z,1006.77
2017-09-26T01:35:19.619Z,1006.77
2017-09-26T01:36:00.208Z,1006.81
2017-09-26T01:36:40.753Z,1006.84
2017-09-26T01:37:21.254Z,1006.82
2017-09-26T01:38:01.776Z,1006.81
2017-09-26T01:38:42.293Z,1006.77
2017-09-26T01:39:22.873Z,1006.78
2017-09-26T01:40:03.432Z,1006.77
2017-09-26T01:40:43.956Z,1006.75
2017-09-26T01:41:24.455Z,1006.78
2017-09-26T01:42:04.956Z,1006.78
2017-09-26T01:42:45.520Z,1006.81
2017-09-26T01:43:26.066Z,1006.82
2017-09-26T01:44:06.574Z,1006.82
2017-09-26T01:44:47.082Z,1006.84
2017-09-26T01:45:27.616Z,1006.87
2017-09-26T01:46:08.195Z,1006.88
2017-09-26T01:46:48.886Z,1006.81
2017-09-26T01:47:29.443Z,1006.86
2017-09-26T01:48:10.003Z,1006.85
2017-09-26T01:48:50.570Z,1006.82
2017-09-26T01:51:04.419Z,1006.89
2017-09-26T01:51:44.959Z,1006.86
2017-09-26T01:52:25.528Z,1006.82
2017-09-26T01:53:05.999Z,1006.85
2017-09-26T01:53:46.657Z,1006.83
2017-09-26T01:54:27.203Z,1006.86
2017-09-26T01:55:07.926Z,1006.83
2017-09-26T01:55:48.483Z,1006.84
2017-09-26T01:56:29.054Z,1006.89
2017-09-26T01:57:09.573Z,1006.85
2017-09-26T01:57:50.100Z,1006.89
2017-09-26T01:58:30.691Z,1006.89
2017-09-26T01:59:11.233Z,1006.82
2017-09-26T01:59:51.802Z,1006.84
2017-09-26T02:00:32.265Z,1006.85
2017-09-26T02:01:12.854Z,1006.85
2017-09-26T02:01:53.408Z,1006.83
2017-09-26T02:02:33.996Z,1006.86
2017-09-26T02:03:14.536Z,1006.83
2017-09-26T02:03:55.097Z,1006.86
2017-09-26T02:04:35.611Z,1006.86
2017-09-26T02:05:16.125Z,1006.89
2017-09-26T02:05:56.655Z,1006.93
2017-09-26T02:06:37.333Z,1006.9
2017-09-26T02:07:17.850Z,1006.9
2017-09-26T02:07:58.412Z,1006.89
2017-09-26T02:08:39.008Z,1006.85
2017-09-26T02:09:19.485Z,1006.86
2017-09-26T02:10:00.061Z,1006.86
2017-09-26T02:10:40.592Z,1006.84
2017-09-26T02:11:21.054Z,1006.85
2017-09-26T02:12:01.604Z,1006.9
2017-09-26T02:12:42.116Z,1006.88
2017-09-26T02:13:22.684Z,1006.87
2017-09-26T02:14:03.198Z,1006.88
2017-09-26T02:14:43.762Z,1006.87
2017-09-26T02:15:24.265Z,1006.87
2017-09-26T02:16:04.907Z,1006.85
2017-09-26T02:16:45.322Z,1006.88
2017-09-26T02:17:25.878Z,1006.84
2017-09-26T02:18:06.456Z,1006.86
2017-09-26T02:18:47.029Z,1006.85
2017-09-26T02:19:27.661Z,1006.89
2017-09-26T02:20:08.212Z,1006.87
2017-09-26T02:20:48.812Z,1006.85
2017-09-26T02:21:29.369Z,1006.83
2017-09-26T02:22:09.867Z,1006.87
2017-09-26T02:22:50.426Z,1006.83
2017-09-26T02:23:31.022Z,1006.87
2017-09-26T02:24:11.546Z,1006.83
2017-09-26T02:24:52.057Z,1006.87
2017-09-26T02:25:32.613Z,1006.86
2017-09-26T02:26:13.158Z,1006.86
2017-09-26T02:26:53.750Z,1006.85
2017-09-26T02:27:34.349Z,1006.87
2017-09-26T02:28:14.858Z,1006.85
2017-09-26T02:28:55.359Z,1006.85
2017-09-26T02:29:35.894Z,1006.88
2017-09-26T02:30:16.469Z,1006.85
2017-09-26T02:30:56.975Z,1006.84
2017-09-26T02:31:37.473Z,1006.86
2017-09-26T02:32:18.018Z,1006.85
2017-09-26T02:32:58.595Z,1006.9
2017-09-26T02:33:39.117Z,1006.86
2017-09-26T02:34:19.696Z,1006.88
2017-09-26T02:35:00.258Z,1006.82
2017-09-26T02:35:40.843Z,1006.8
2017-09-26T02:36:21.433Z,1006.8
2017-09-26T02:37:02.036Z,1006.82
2017-09-26T02:37:42.554Z,1006.84
2017-09-26T02:38:23.060Z,1006.79
2017-09-26T02:39:03.586Z,1006.75
2017-09-26T02:39:44.136Z,1006.87
2017-09-26T02:40:24.630Z,1006.77
2017-09-26T02:41:05.218Z,1006.79
2017-09-26T02:41:45.776Z,1006.82
2017-09-26T02:42:26.297Z,1006.8
2017-09-26T02:43:06.853Z,1006.76
2017-09-26T02:43:47.416Z,1006.83
2017-09-26T02:44:27.925Z,1006.83
2017-09-26T02:45:08.540Z,1006.86
2017-09-26T02:45:49.139Z,1006.85
2017-09-26T02:46:29.692Z,1006.86
2017-09-26T02:47:10.343Z,1006.83
2017-09-26T02:47:50.896Z,1006.85
2017-09-26T02:48:31.475Z,1006.81
2017-09-26T02:49:15.582Z,1006.83
2017-09-26T02:49:55.053Z,1006.86
2017-09-26T02:50:35.616Z,1006.86
2017-09-26T02:51:16.190Z,1006.84
2017-09-26T02:51:56.710Z,1006.83
2017-09-26T02:52:37.368Z,1006.86
2017-09-26T02:53:17.900Z,1006.81
2017-09-26T02:53:58.464Z,1006.85
2017-09-26T02:54:39.028Z,1006.84
2017-09-26T02:55:19.483Z,1006.83
2017-09-26T02:56:00.085Z,1006.84
2017-09-26T02:56:40.639Z,1006.83
2017-09-26T02:57:21.136Z,1006.81
2017-09-26T02:58:01.632Z,1006.78
2017-09-26T02:58:42.227Z,1006.81
2017-09-26T02:59:22.872Z,1006.8
2017-09-26T03:00:03.451Z,1006.81
2017-09-26T03:00:43.900Z,1006.81
2017-09-26T03:01:24.560Z,1006.8
2017-09-26T03:02:05.205Z,1006.86
2017-09-26T03:02:45.881Z,1006.78
2017-09-26T03:03:26.456Z,1006.81
2017-09-26T03:04:06.988Z,1006.82
2017-09-26T03:04:47.560Z,1006.82
2017-09-26T03:05:28.072Z,1006.82
2017-09-26T03:06:08.617Z,1006.83
2017-09-26T03:06:49.181Z,1006.88
2017-09-26T03:07:29.724Z,1006.81
2017-09-26T03:08:10.269Z,1006.8
2017-09-26T03:08:50.804Z,1006.85
2017-09-26T03:09:31.418Z,1006.86
2017-09-26T03:10:11.925Z,1006.89
2017-09-26T03:10:52.469Z,1006.89
2017-09-26T03:11:33.039Z,1006.87
2017-09-26T03:12:13.730Z,1006.84
2017-09-26T03:12:54.311Z,1006.86
2017-09-26T03:13:34.847Z,1006.88
2017-09-26T03:14:15.393Z,1006.9
2017-09-26T03:14:55.923Z,1006.89
2017-09-26T03:15:36.484Z,1006.91
2017-09-26T03:16:17.032Z,1006.91
2017-09-26T03:16:57.578Z,1006.92
2017-09-26T03:17:38.102Z,1006.93
2017-09-26T03:18:18.688Z,1006.9
2017-09-26T03:18:59.454Z,1006.92
2017-09-26T03:19:40.316Z,1006.94
2017-09-26T03:20:21.136Z,1006.92
2017-09-26T03:21:01.566Z,1006.95
2017-09-26T03:21:42.145Z,1006.93
2017-09-26T03:22:22.837Z,1006.95
2017-09-26T03:23:03.358Z,1007
2017-09-26T03:23:43.930Z,1007
2017-09-26T03:24:24.442Z,1006.99
2017-09-26T03:25:05.016Z,1006.98
2017-09-26T03:25:45.576Z,1006.99
2017-09-26T03:26:26.107Z,1006.98
2017-09-26T03:27:06.699Z,1007.02
2017-09-26T03:27:47.346Z,1007.02
2017-09-26T03:28:27.896Z,1006.98
2017-09-26T03:29:08.425Z,1007.03
2017-09-26T03:29:48.955Z,1007.05
2017-09-26T03:30:29.466Z,1007.05
2017-09-26T03:31:10.037Z,1007.04
2017-09-26T03:31:50.616Z,1007.05
2017-09-26T03:32:31.158Z,1007.07
2017-09-26T03:33:11.668Z,1007.09
2017-09-26T03:33:52.185Z,1007.08
2017-09-26T03:34:32.758Z,1007.13
2017-09-26T03:35:13.280Z,1007.09
2017-09-26T03:35:53.942Z,1007.1
2017-09-26T03:36:34.500Z,1007.09
2017-09-26T03:37:15.039Z,1007.12
2017-09-26T03:37:55.626Z,1007.06
2017-09-26T03:38:36.245Z,1007.1
2017-09-26T03:39:16.758Z,1007.09
2017-09-26T03:39:57.320Z,1007.09
2017-09-26T03:40:37.795Z,1007.07
2017-09-26T03:41:18.359Z,1007.05
2017-09-26T03:41:58.900Z,1007.08
2017-09-26T03:42:39.461Z,1007.07
2017-09-26T03:43:20.023Z,1007.09
2017-09-26T03:44:00.596Z,1007.05
2017-09-26T03:44:41.210Z,1007.06
2017-09-26T03:45:21.712Z,1007.11
2017-09-26T03:46:02.263Z,1007.1
2017-09-26T03:46:42.967Z,1007.1
2017-09-26T03:47:23.485Z,1007.12
2017-09-26T03:48:04.089Z,1007.11
2017-09-26T03:48:44.645Z,1007.11
2017-09-26T03:49:25.309Z,1007.11
2017-09-26T03:50:05.824Z,1007.12
2017-09-26T03:50:46.539Z,1007.13
2017-09-26T03:51:26.910Z,1007.18
2017-09-26T03:52:07.656Z,1007.11
2017-09-26T03:52:48.141Z,1007.12
2017-09-26T03:53:28.708Z,1007.16
2017-09-26T03:54:09.214Z,1007.1
2017-09-26T03:54:49.793Z,1007.17
2017-09-26T03:55:30.339Z,1007.12
2017-09-26T03:56:11.104Z,1007.13
2017-09-26T03:56:52.415Z,1007.1
2017-09-26T03:57:33.184Z,1007.11
2017-09-26T03:58:14.189Z,1007.17
2017-09-26T03:58:55.804Z,1007.15
2017-09-26T03:59:37.205Z,1007.16
2017-09-26T04:00:19.270Z,1007.16
2017-09-26T04:01:00.121Z,1007.15
2017-09-26T04:01:40.758Z,1007.21
2017-09-26T04:02:21.390Z,1007.19
2017-09-26T04:03:02.361Z,1007.19
2017-09-26T04:03:42.899Z,1007.18
2017-09-26T04:04:23.442Z,1007.2
2017-09-26T04:05:03.950Z,1007.23
2017-09-26T04:05:44.484Z,1007.22
2017-09-26T04:06:25.054Z,1007.27
2017-09-26T04:07:05.602Z,1007.22
2017-09-26T04:07:46.145Z,1007.27
2017-09-26T04:08:26.661Z,1007.27
2017-09-26T04:09:07.263Z,1007.24
2017-09-26T04:09:47.819Z,1007.26
2017-09-26T04:10:28.433Z,1007.25
2017-09-26T04:11:08.997Z,1007.29
2017-09-26T04:11:49.493Z,1007.25
2017-09-26T04:12:30.124Z,1007.27
2017-09-26T04:13:10.616Z,1007.29
2017-09-26T04:13:51.154Z,1007.3
2017-09-26T04:14:31.628Z,1007.33
2017-09-26T04:15:12.219Z,1007.26
2017-09-26T04:15:52.808Z,1007.31
2017-09-26T04:16:33.279Z,1007.27
2017-09-26T04:17:13.825Z,1007.27
2017-09-26T04:17:54.309Z,1007.32
2017-09-26T04:18:34.864Z,1007.27
2017-09-26T04:19:15.500Z,1007.28
2017-09-26T04:19:56.020Z,1007.29
2017-09-26T04:20:36.623Z,1007.3
2017-09-26T04:21:17.153Z,1007.28
2017-09-26T04:21:57.772Z,1007.31
2017-09-26T04:22:38.307Z,1007.27
2017-09-26T04:23:18.822Z,1007.27
2017-09-26T04:23:59.468Z,1007.31
2017-09-26T04:24:39.964Z,1007.27
2017-09-26T04:25:20.562Z,1007.3
2017-09-26T04:26:01.136Z,1007.31
2017-09-26T04:26:41.673Z,1007.28
2017-09-26T04:27:22.216Z,1007.28
2017-09-26T04:28:02.727Z,1007.3
2017-09-26T04:28:43.376Z,1007.3
2017-09-26T04:29:23.879Z,1007.33
2017-09-26T04:30:04.599Z,1007.33
2017-09-26T04:30:45.428Z,1007.34
2017-09-26T04:31:26.303Z,1007.33
2017-09-26T04:32:07.012Z,1007.33
2017-09-26T04:32:47.704Z,1007.35
2017-09-26T04:33:28.184Z,1007.37
2017-09-26T04:34:08.709Z,1007.38
2017-09-26T04:34:49.268Z,1007.34
2017-09-26T04:35:30.313Z,1007.32
2017-09-26T04:36:10.584Z,1007.34
2017-09-26T04:36:51.295Z,1007.33
2017-09-26T04:37:32.060Z,1007.32
2017-09-26T04:38:12.938Z,1007.36
2017-09-26T04:38:53.890Z,1007.35
2017-09-26T04:39:34.625Z,1007.4
2017-09-26T04:40:15.502Z,1007.36
2017-09-26T04:40:57.177Z,1007.36
2017-09-26T04:41:39.256Z,1007.41
2017-09-26T04:42:20.314Z,1007.37
2017-09-26T04:43:00.846Z,1007.4
2017-09-26T04:43:41.389Z,1007.39
2017-09-26T04:44:21.947Z,1007.43
2017-09-26T04:45:02.457Z,1007.43
2017-09-26T04:45:43.069Z,1007.43
2017-09-26T04:46:23.661Z,1007.45
2017-09-26T04:47:06.974Z,1007.42
2017-09-26T04:47:51.776Z,1007.43
2017-09-26T04:48:33.895Z,1007.43
2017-09-26T04:49:17.423Z,1007.4
2017-09-26T04:49:59.835Z,1007.43
2017-09-26T04:50:42.412Z,1007.47
2017-09-26T04:51:25.277Z,1007.43
2017-09-26T04:52:10.707Z,1007.45
2017-09-26T04:52:55.994Z,1007.45
2017-09-26T04:58:38.209Z,1007.47
2017-09-26T04:59:18.693Z,1007.47
2017-09-26T04:59:59.488Z,1007.5
2017-09-26T05:00:39.972Z,1007.45
2017-09-26T05:01:21.178Z,1007.48
2017-09-26T05:02:01.312Z,1007.46
2017-09-26T05:02:41.954Z,1007.45
2017-09-26T05:03:22.466Z,1007.4
2017-09-26T05:04:03.061Z,1007.45
2017-09-26T05:04:43.643Z,1007.4
2017-09-26T05:05:24.171Z,1007.5
2017-09-26T05:06:04.683Z,1007.46
2017-09-26T05:06:45.374Z,1007.46
2017-09-26T05:07:25.806Z,1007.44
2017-09-26T05:08:06.370Z,1007.46
2017-09-26T05:08:46.861Z,1007.44
2017-09-26T05:09:27.445Z,1007.48
2017-09-26T05:10:07.939Z,1007.51
2017-09-26T05:10:48.519Z,1007.53
2017-09-26T05:11:29.079Z,1007.5
2017-09-26T05:12:09.609Z,1007.5
2017-09-26T05:12:50.156Z,1007.54
2017-09-26T05:13:30.703Z,1007.54
2017-09-26T05:14:11.162Z,1007.52
2017-09-26T05:14:51.708Z,1007.63
2017-09-26T05:15:32.258Z,1007.59
2017-09-26T05:16:12.769Z,1007.6
2017-09-26T05:16:53.304Z,1007.62
2017-09-26T05:17:34.001Z,1007.63
2017-09-26T05:18:14.410Z,1007.6
2017-09-26T05:18:54.857Z,1007.63
2017-09-26T05:19:35.441Z,1007.67
2017-09-26T05:20:15.996Z,1007.64
2017-09-26T05:20:57.013Z,1007.67
2017-09-26T05:21:37.542Z,1007.67
2017-09-26T05:22:18.167Z,1007.69
2017-09-26T05:22:58.712Z,1007.71
2017-09-26T05:23:39.242Z,1007.74
2017-09-26T05:24:19.784Z,1007.72
2017-09-26T05:25:00.288Z,1007.73
2017-09-26T05:25:40.874Z,1007.74
2017-09-26T05:26:21.437Z,1007.77
2017-09-26T05:27:02.054Z,1007.74
2017-09-26T05:27:42.606Z,1007.78
2017-09-26T05:28:23.159Z,1007.77
2017-09-26T05:29:03.776Z,1007.77
2017-09-26T05:29:44.296Z,1007.77
2017-09-26T05:30:24.782Z,1007.75
2017-09-26T05:31:05.307Z,1007.76
2017-09-26T05:31:45.864Z,1007.78
2017-09-26T05:32:26.474Z,1007.81
2017-09-26T05:33:07.145Z,1007.76
2017-09-26T05:33:47.734Z,1007.8
2017-09-26T05:34:28.261Z,1007.78
2017-09-26T05:35:08.864Z,1007.8
2017-09-26T05:35:49.344Z,1007.79
2017-09-26T05:36:29.863Z,1007.83
2017-09-26T05:37:13.335Z,1007.85
2017-09-26T05:37:53.544Z,1007.84
2017-09-26T05:38:34.081Z,1007.84
2017-09-26T05:39:14.628Z,1007.87
2017-09-26T05:39:55.421Z,1007.87
2017-09-26T05:40:35.970Z,1007.89
2017-09-26T05:41:16.523Z,1007.77
2017-09-26T05:41:57.032Z,1007.85
2017-09-26T05:42:37.651Z,1007.92
2017-09-26T05:43:20.053Z,1007.85
2017-09-26T05:44:00.709Z,1007.85
2017-09-26T05:44:41.278Z,1007.88
2017-09-26T05:45:21.914Z,1007.84
2017-09-26T05:46:02.366Z,1007.82
2017-09-26T05:46:43.452Z,1007.81
2017-09-26T05:47:24.497Z,1007.81
2017-09-26T05:48:05.224Z,1007.81
2017-09-26T05:48:45.768Z,1007.84
2017-09-26T05:49:26.310Z,1007.86
2017-09-26T05:50:06.873Z,1007.88
2017-09-26T05:50:47.416Z,1007.84
2017-09-26T05:51:28.070Z,1007.82
2017-09-26T05:52:08.620Z,1007.91
2017-09-26T05:52:49.164Z,1007.86
2017-09-26T05:53:29.655Z,1007.89
2017-09-26T05:54:10.189Z,1007.9
2017-09-26T05:54:50.758Z,1007.9
2017-09-26T05:55:31.306Z,1007.89
2017-09-26T05:56:11.818Z,1007.89
2017-09-26T05:56:52.381Z,1007.9
2017-09-26T05:57:32.875Z,1007.86
2017-09-26T05:58:13.446Z,1007.89
2017-09-26T05:58:53.948Z,1007.92
2017-09-26T05:59:34.459Z,1007.86
2017-09-26T06:00:15.189Z,1007.92
2017-09-26T06:00:55.697Z,1007.89
2017-09-26T06:01:36.404Z,1007.93
2017-09-26T06:02:16.825Z,1007.9
2017-09-26T06:02:57.654Z,1007.88
2017-09-26T06:03:38.304Z,1007.93
2017-09-26T06:04:18.781Z,1007.92
2017-09-26T06:04:59.321Z,1007.94
2017-09-26T06:05:39.841Z,1007.92
2017-09-26T06:06:20.432Z,1007.88
2017-09-26T06:07:00.946Z,1007.91
2017-09-26T06:07:41.510Z,1007.91
2017-09-26T06:08:22.052Z,1007.9
2017-09-26T06:09:02.603Z,1007.94
2017-09-26T06:09:43.236Z,1007.9
2017-09-26T06:10:23.793Z,1007.93
2017-09-26T06:11:04.297Z,1007.94
2017-09-26T06:11:44.921Z,1007.91
2017-09-26T06:12:25.496Z,1007.91
2017-09-26T06:13:06.221Z,1007.97
2017-09-26T06:13:46.892Z,1007.95
2017-09-26T06:14:27.449Z,1008.01
2017-09-26T06:15:07.979Z,1008.01
2017-09-26T06:15:48.589Z,1007.98
2017-09-26T06:16:29.072Z,1008.02
2017-09-26T06:17:09.620Z,1008.01
2017-09-26T06:17:50.112Z,1008.01
2017-09-26T06:18:30.738Z,1008.04
2017-09-26T06:19:11.282Z,1008.03
2017-09-26T06:19:51.774Z,1008.07
2017-09-26T06:20:32.380Z,1008.05
2017-09-26T06:21:13.178Z,1008.04
2017-09-26T06:21:54.654Z,1008.04
2017-09-26T06:22:35.571Z,1008.06
2017-09-26T06:23:16.368Z,1008.02
2017-09-26T06:25:21.030Z,1008.06
2017-09-26T06:26:01.795Z,1008.07
2017-09-26T06:26:42.393Z,1008.09
2017-09-26T06:27:23.021Z,1008.09
2017-09-26T06:28:03.750Z,1008.07
2017-09-26T06:28:44.534Z,1008.05
2017-09-26T06:29:25.489Z,1008.02
2017-09-26T06:30:05.620Z,1008.06
2017-09-26T06:30:46.601Z,1008.04
2017-09-26T06:31:27.480Z,1008.06
2017-09-26T06:32:07.755Z,1008.05
2017-09-26T06:32:48.378Z,1008.06
2017-09-26T06:33:28.865Z,1008.05
2017-09-26T06:34:10.287Z,1008.08
2017-09-26T06:34:50.708Z,1008.06
2017-09-26T06:35:31.287Z,1008.06
2017-09-26T06:36:11.975Z,1008.08
2017-09-26T06:36:53.010Z,1008.07
2017-09-26T06:37:35.990Z,1008.1
2017-09-26T06:38:20.831Z,1008.06
2017-09-26T06:39:04.766Z,1008.03
2017-09-26T06:39:47.698Z,1008.02
2017-09-26T06:40:28.286Z,1008.08
2017-09-26T06:41:09.833Z,1008.05
2017-09-26T06:41:51.086Z,1008.04
2017-09-26T06:42:31.880Z,1008.02
2017-09-26T06:43:13.673Z,1008.06
2017-09-26T06:43:56.128Z,1008.05
2017-09-26T06:44:37.678Z,1008.03
2017-09-26T06:45:19.667Z,1008.06
2017-09-26T06:46:00.343Z,1008.02
2017-09-26T06:46:40.958Z,1008.05
2017-09-26T06:47:21.916Z,1008.04
2017-09-26T06:48:02.637Z,1008.05
2017-09-26T06:48:43.369Z,1008.1
2017-09-26T06:49:27.537Z,1008.09
2017-09-26T06:50:08.127Z,1008.08
2017-09-26T06:50:49.247Z,1008.06
2017-09-26T06:51:30.503Z,1008.09
2017-09-26T06:53:46.346Z,1008.07
2017-09-26T06:54:29.261Z,1008.01
2017-09-26T06:55:10.608Z,1008.03
2017-09-26T06:55:51.323Z,1008.07
2017-09-26T06:56:31.776Z,1008.1
2017-09-26T06:57:12.780Z,1008.07
2017-09-26T06:57:53.155Z,1008.09
2017-09-26T06:58:35.574Z,1008.11
2017-09-26T06:59:16.154Z,1008.09
2017-09-26T06:59:56.730Z,1008.14
2017-09-26T07:00:42.005Z,1008.11
2017-09-26T07:01:22.357Z,1008.15
2017-09-26T07:02:03.170Z,1008.14
2017-09-26T07:11:41.573Z,1008.28
2017-09-26T07:12:22.402Z,1008.27
2017-09-26T07:13:03.060Z,1008.29
2017-09-26T07:13:43.639Z,1008.3
2017-09-26T07:14:24.296Z,1008.28
2017-09-26T07:15:04.820Z,1008.3
2017-09-26T07:15:45.615Z,1008.34
2017-09-26T07:16:26.966Z,1008.3
2017-09-26T07:17:07.839Z,1008.3
2017-09-26T07:17:48.515Z,1008.35
2017-09-26T07:18:29.019Z,1008.36
2017-09-26T07:19:09.553Z,1008.4
2017-09-26T07:19:50.213Z,1008.37
2017-09-26T07:20:30.875Z,1008.42
2017-09-26T07:21:11.398Z,1008.37
2017-09-26T07:21:51.956Z,1008.45
2017-09-26T07:22:32.471Z,1008.46
2017-09-26T07:23:13.161Z,1008.47
2017-09-26T07:23:53.724Z,1008.45
2017-09-26T07:24:34.285Z,1008.46
2017-09-26T07:25:19.028Z,1008.39
2017-09-26T07:25:59.597Z,1008.41
2017-09-26T07:26:40.363Z,1008.47
2017-09-26T07:27:20.904Z,1008.47
2017-09-26T07:28:02.046Z,1008.39
2017-09-26T07:28:42.571Z,1008.44
2017-09-26T07:29:23.249Z,1008.44
2017-09-26T07:30:03.807Z,1008.44
2017-09-26T07:30:44.418Z,1008.48
2017-09-26T07:31:25.246Z,1008.45
2017-09-26T07:32:05.791Z,1008.53
2017-09-26T07:32:46.339Z,1008.42
2017-09-26T07:33:26.888Z,1008.45
2017-09-26T07:34:07.438Z,1008.5
2017-09-26T07:34:48.139Z,1008.51
2017-09-26T07:35:33.350Z,1008.49
2017-09-26T07:36:20.740Z,1008.5
2017-09-26T07:37:03.167Z,1008.45
2017-09-26T07:37:44.529Z,1008.49
2017-09-26T07:38:28.818Z,1008.5
2017-09-26T07:39:10.503Z,1008.48
2017-09-26T07:39:52.924Z,1008.49
2017-09-26T07:40:37.330Z,1008.41
2017-09-26T09:24:52.059Z,1008.54
2017-09-26T09:25:32.717Z,1008.6
2017-09-26T09:26:13.357Z,1008.54
2017-09-26T09:26:53.816Z,1008.54
2017-09-26T09:27:34.359Z,1008.55
2017-09-26T09:28:14.964Z,1008.57
2017-09-26T09:28:55.680Z,1008.54
2017-09-26T09:29:36.246Z,1008.52
2017-09-26T09:30:16.835Z,1008.49
2017-09-26T09:30:57.363Z,1008.47
2017-09-26T09:31:37.918Z,1008.49
2017-09-26T09:32:18.585Z,1008.46
2017-09-26T09:32:59.190Z,1008.47
2017-09-26T09:33:39.763Z,1008.46
2017-09-26T09:34:20.304Z,1008.45
2017-09-26T09:35:00.916Z,1008.47
2017-09-26T09:35:41.479Z,1008.44
2017-09-26T09:36:22.043Z,1008.4
2017-09-26T09:37:02.510Z,1008.4
2017-09-26T09:37:43.093Z,1008.45
2017-09-26T09:38:23.687Z,1008.46
2017-09-26T09:39:04.340Z,1008.41
2017-09-26T09:39:45.032Z,1008.39
2017-09-26T09:40:25.579Z,1008.42
2017-09-26T09:41:06.180Z,1008.42
2017-09-26T09:41:46.763Z,1008.41
2017-09-26T09:42:27.323Z,1008.42
2017-09-26T09:43:07.845Z,1008.42
2017-09-26T09:43:48.418Z,1008.41
2017-09-26T09:44:29.082Z,1008.44
2017-09-26T09:45:09.538Z,1008.4
2017-09-26T09:45:50.084Z,1008.4
2017-09-26T09:46:30.604Z,1008.39
2017-09-26T09:47:11.187Z,1008.41
2017-09-26T09:47:51.735Z,1008.37
2017-09-26T09:48:32.317Z,1008.38
2017-09-26T09:49:12.836Z,1008.41
2017-09-26T09:49:53.451Z,1008.46
2017-09-26T09:50:34.087Z,1008.4
2017-09-26T09:51:14.499Z,1008.34
2017-09-26T09:51:55.121Z,1008.36
2017-09-26T09:52:35.626Z,1008.37
2017-09-26T09:53:16.158Z,1008.3
2017-09-26T09:53:56.709Z,1008.38
2017-09-26T09:54:37.305Z,1008.37
2017-09-26T09:55:17.935Z,1008.36
2017-09-26T09:55:58.371Z,1008.35
2017-09-26T09:56:38.966Z,1008.34
2017-09-26T09:57:19.578Z,1008.34
2017-09-26T09:58:00.223Z,1008.32
2017-09-26T09:58:40.796Z,1008.36
2017-09-26T09:59:21.324Z,1008.34
2017-09-26T10:00:01.924Z,1008.36
2017-09-26T10:00:42.493Z,1008.37
2017-09-26T10:01:23.096Z,1008.34
2017-09-26T10:02:03.697Z,1008.33
2017-09-26T10:02:44.170Z,1008.33
2017-09-26T10:03:24.791Z,1008.32
2017-09-26T10:04:05.389Z,1008.31
2017-09-26T10:04:45.929Z,1008.33
2017-09-26T10:05:26.493Z,1008.36
2017-09-26T10:06:07.000Z,1008.39
2017-09-26T10:06:47.578Z,1008.37
2017-09-26T10:07:28.127Z,1008.32
2017-09-26T10:08:08.704Z,1008.32
2017-09-26T10:08:49.277Z,1008.36
2017-09-26T10:09:29.819Z,1008.35
2017-09-26T10:10:10.404Z,1008.39
2017-09-26T10:10:50.904Z,1008.36
2017-09-26T10:11:31.511Z,1008.33
2017-09-26T10:12:12.042Z,1008.37
2017-09-26T10:12:52.610Z,1008.34
2017-09-26T10:13:33.161Z,1008.38
2017-09-26T10:14:13.716Z,1008.38
2017-09-26T10:14:54.257Z,1008.35
2017-09-26T10:15:34.803Z,1008.38
2017-09-26T10:16:15.393Z,1008.36
2017-09-26T10:16:55.932Z,1008.35